Gerald R. Ford International Airport
KGRR : now visible

Airfield :











YOU CAN JOIN US ON...

 
LOGIN :

Register | Disclaimer

   EN    FR    IT 

 









Legend :    VFR   Marginal VFR   IFR   Intensive IFR   Very Intensive IFR
Visi :
Ceiling :
>= 8 km
>= 3000ft
5 to 8 km
1000 to 3000 ft
1500m to 5 km
500 to 1000 ft
800 to 1500m
200 to 500 ft
< 800m
< 200 ft
Symbols :   Thunderstorms  Fog  Heavy snow  Heavy precipitations  Wind > 20 kt






- Airport Elevation : 794 ft
- IATA code : GRR


KGRR - Gerald R. Ford International

CURRENT METAR :
  • 040653Z AUTO 21007KT 10SM CLR M05/M08 A3030 RMK AO2 SLP273 T10501083 PNO

EXPIRED METARs :
  • 040553Z AUTO 20006KT 10SM CLR M06/M09 A3030 RMK AO2 SLP274 T10561089 11022 21061 58014 PNO
  • 040453Z 23004KT 10SM CLR M05/M09 A3033 RMK AO2 SLP284 LAST T10501089 401001056 PNO

TAF KGRR
Valid from the 04 at 06:00 until the 05 at 06:00 UTC


040540Z 0406/0506 23004KT P6SM SKC
FM041400 24012KT P6SM SKC
KZAU FIR / North America



MET'MAP, your aeronautical weather chart ! - Copyright ORBIFLY December 2007 - Disclaimer

ORBIFLY MET'MAP TEAM :

Programming & Development : Alexandra Zaïnal
Original concept : Baudouin d'Aumeries
Technical & hardware support : Manuel Goepfert
Assistance : Marc-Olivier Méhu




SOURCES & CREDITS :

   NOAA       Earth
Advisory